Time;durP1;ratioP1;P1;durP2;ratioP2;P2;SDS_P1;SDS_P2;PMS_P1;PMS_P2;Temp;Humidity;BMP_temperature;BMP_pressure;BME280_temperature;BME280_humidity;BME280_pressure;Samples;Min_cycle;Max_cycle;Signal;HPM_P1;HPM_P2
2022/06/13 00:01:21;;;;;;;7.85;2.10;;;23.10;53.00;;;;;;5012758;28;20465;-72
2022/06/13 00:03:48;;;;;;;10.27;2.00;;;23.10;53.20;;;;;;5013117;28;20072;-72
2022/06/13 00:06:14;;;;;;;10.23;2.25;;;23.10;52.50;;;;;;5011630;28;20026;-72
2022/06/13 00:08:40;;;;;;;5.72;1.75;;;23.10;52.80;;;;;;5012404;28;20037;-72
2022/06/13 00:11:09;;;;;;;6.93;2.30;;;23.00;53.20;;;;;;5010247;28;20061;-72
2022/06/13 00:13:36;;;;;;;7.25;2.00;;;23.00;53.10;;;;;;4993131;28;20034;-72
2022/06/13 00:16:03;;;;;;;9.52;2.15;;;23.00;53.10;;;;;;5008409;28;20029;-72
2022/06/13 00:18:28;;;;;;;7.93;2.15;;;23.00;52.40;;;;;;4996450;28;20061;-73
2022/06/13 00:20:55;;;;;;;8.00;2.30;;;23.00;52.60;;;;;;5011192;28;20068;-72
2022/06/13 00:23:21;;;;;;;8.20;1.90;;;23.00;52.70;;;;;;4992571;28;20030;-72
2022/06/13 00:25:47;;;;;;;7.45;2.05;;;23.00;52.80;;;;;;5006209;28;20097;-72
2022/06/13 00:28:13;;;;;;;7.07;1.90;;;22.90;53.20;;;;;;5011790;28;20101;-72
2022/06/13 00:30:39;;;;;;;9.13;2.20;;;23.00;53.30;;;;;;4995396;28;20445;-72
2022/06/13 00:33:05;;;;;;;7.57;2.30;;;23.00;52.80;;;;;;5011226;28;20030;-72
2022/06/13 00:35:31;;;;;;;8.60;2.42;;;23.00;53.40;;;;;;5011653;28;20120;-72
2022/06/13 00:37:56;;;;;;;7.97;2.22;;;23.00;53.30;;;;;;5011417;28;20177;-72
2022/06/13 00:40:22;;;;;;;9.70;2.33;;;23.00;53.10;;;;;;5011511;28;20029;-72
2022/06/13 00:42:48;;;;;;;7.93;2.10;;;23.00;52.70;;;;;;5012287;28;20033;-72
2022/06/13 00:45:16;;;;;;;6.72;1.77;;;23.00;52.80;;;;;;4995412;28;20022;-72
2022/06/13 00:47:46;;;;;;;8.15;2.35;;;23.00;52.60;;;;;;5006852;28;20030;-73
2022/06/13 00:50:21;;;;;;;9.90;2.38;;;23.00;52.80;;;;;;4995124;28;20037;-70
2022/06/13 00:52:56;;;;;;;6.65;1.90;;;22.90;52.30;;;;;;5011210;28;20165;-70
2022/06/13 00:55:32;;;;;;;7.35;2.22;;;23.00;53.10;;;;;;5005599;28;20045;-71
2022/06/13 00:58:00;;;;;;;7.88;2.08;;;23.00;52.60;;;;;;5011414;28;20032;-71
2022/06/13 01:00:27;;;;;;;9.05;1.80;;;23.00;52.40;;;;;;5012842;28;20030;-71
2022/06/13 01:02:54;;;;;;;8.00;1.85;;;23.00;52.50;;;;;;5008525;28;20026;-71
2022/06/13 01:05:27;;;;;;;6.35;2.08;;;23.00;52.70;;;;;;5003649;28;20029;-71
2022/06/13 01:07:54;;;;;;;8.77;1.95;;;23.00;52.50;;;;;;5011062;28;20026;-71
2022/06/13 01:13:08;;;;;;;7.93;1.95;;;22.90;52.70;;;;;;5011368;28;20486;-71
2022/06/13 01:15:56;;;;;;;6.65;1.83;;;22.90;52.90;;;;;;5012692;28;20071;-70
2022/06/13 01:18:48;;;;;;;8.02;2.08;;;22.90;53.00;;;;;;5010739;28;20119;-72
2022/06/13 01:21:56;;;;;;;9.15;1.98;;;22.90;52.50;;;;;;5009388;28;20041;-72
2022/06/13 01:24:54;;;;;;;8.93;1.80;;;23.00;52.70;;;;;;4974751;28;20061;-72
2022/06/13 01:27:51;;;;;;;7.43;1.90;;;22.90;52.50;;;;;;5004518;28;20022;-71
2022/06/13 01:30:47;;;;;;;6.72;1.73;;;22.90;52.60;;;;;;5010444;28;20487;-72
2022/06/13 01:33:50;;;;;;;8.50;2.10;;;22.90;52.60;;;;;;5012517;28;20034;-73
2022/06/13 01:36:36;;;;;;;7.93;2.00;;;22.90;52.70;;;;;;5010458;28;20029;-72
2022/06/13 01:39:21;;;;;;;7.32;1.70;;;22.90;52.90;;;;;;5009776;28;20041;-71
2022/06/13 01:42:02;;;;;;;8.13;2.00;;;22.90;52.90;;;;;;4990520;28;20510;-72
2022/06/13 01:45:01;;;;;;;6.95;2.03;;;22.90;52.90;;;;;;4991009;28;20026;-72
2022/06/13 01:47:45;;;;;;;8.18;2.47;;;22.90;52.70;;;;;;5005012;28;20013;-72
2022/06/13 01:50:24;;;;;;;4.72;1.60;;;22.90;52.60;;;;;;5008981;28;20037;-73
2022/06/13 01:53:18;;;;;;;7.95;2.25;;;22.90;52.70;;;;;;5011268;28;20123;-72
2022/06/13 01:56:05;;;;;;;4.63;1.80;;;22.90;52.60;;;;;;5026014;28;20044;-72
2022/06/13 01:58:49;;;;;;;7.18;1.95;;;22.80;52.50;;;;;;4992258;28;20088;-72
2022/06/13 02:01:32;;;;;;;8.25;2.30;;;22.80;52.80;;;;;;5009631;28;20034;-72
2022/06/13 02:04:00;;;;;;;8.32;2.22;;;22.80;52.70;;;;;;5009274;28;20458;-72
2022/06/13 02:06:31;;;;;;;6.55;2.28;;;22.80;52.90;;;;;;5011665;28;20502;-72
2022/06/13 02:09:15;;;;;;;10.02;2.03;;;22.80;52.70;;;;;;5007634;28;20025;-72
2022/06/13 02:11:51;;;;;;;8.20;2.08;;;22.80;52.90;;;;;;5011197;28;20153;-72
2022/06/13 02:14:19;;;;;;;7.15;2.20;;;22.80;52.80;;;;;;5009533;28;20018;-72
2022/06/13 02:17:11;;;;;;;8.15;2.20;;;22.80;52.80;;;;;;5011626;28;20475;-72
2022/06/13 02:20:01;;;;;;;6.70;2.22;;;22.90;53.10;;;;;;5010846;28;20380;-72
2022/06/13 02:22:51;;;;;;;7.30;2.35;;;22.90;53.00;;;;;;5002903;28;20038;-72
2022/06/13 02:25:25;;;;;;;9.20;2.58;;;22.90;53.20;;;;;;5018547;28;20553;-72
2022/06/13 02:28:05;;;;;;;6.80;2.30;;;22.90;53.30;;;;;;5009298;28;20486;-72
2022/06/13 02:30:56;;;;;;;9.82;2.78;;;22.90;53.30;;;;;;5009726;28;20105;-72
2022/06/13 02:33:27;;;;;;;8.07;2.38;;;22.90;53.20;;;;;;5003345;28;20107;-72
2022/06/13 02:36:05;;;;;;;9.18;2.75;;;22.80;53.00;;;;;;5009915;28;20051;-72
2022/06/13 02:38:41;;;;;;;10.27;2.88;;;22.80;53.00;;;;;;5010065;28;20446;-73
2022/06/13 02:41:12;;;;;;;9.65;2.90;;;22.80;53.20;;;;;;5010364;28;20033;-72
2022/06/13 02:44:24;;;;;;;9.30;3.00;;;22.90;53.20;;;;;;5011270;28;20385;-72
2022/06/13 02:46:57;;;;;;;10.43;2.88;;;22.80;53.10;;;;;;4997738;28;20120;-72
2022/06/13 02:49:37;;;;;;;10.38;2.53;;;22.90;53.20;;;;;;5010881;28;20022;-72
2022/06/13 02:52:15;;;;;;;8.15;2.50;;;22.80;53.20;;;;;;5009634;28;20034;-72
2022/06/13 02:54:49;;;;;;;7.78;2.40;;;22.80;53.20;;;;;;5009150;28;20037;-72
2022/06/13 02:58:07;;;;;;;8.00;2.47;;;22.80;53.10;;;;;;5009186;28;20064;-72
2022/06/13 03:00:48;;;;;;;11.40;2.55;;;22.80;53.20;;;;;;4974303;28;20105;-72
2022/06/13 03:04:08;;;;;;;7.80;2.58;;;22.80;53.20;;;;;;5022056;28;20449;-73
2022/06/13 03:06:43;;;;;;;;;;;22.80;53.20;;;;;;4961063;28;20593;-72
2022/06/13 03:09:32;;;;;;;8.93;1.92;;;22.80;53.30;;;;;;5008551;28;20404;-72
2022/06/13 03:12:14;;;;;;;7.97;2.58;;;22.80;53.20;;;;;;5007490;28;20360;-72
2022/06/13 03:14:50;;;;;;;7.00;2.42;;;22.80;53.20;;;;;;5010985;28;20091;-73
2022/06/13 03:17:39;;;;;;;6.32;2.05;;;22.70;53.30;;;;;;5009948;28;20080;-72
2022/06/13 03:20:10;;;;;;;12.38;2.80;;;22.70;53.10;;;;;;5008377;28;20483;-72
2022/06/13 03:23:05;;;;;;;8.13;2.50;;;22.70;53.10;;;;;;5009673;28;20110;-72
2022/06/13 03:25:51;;;;;;;7.68;2.30;;;22.70;53.00;;;;;;5007774;28;20030;-72
2022/06/13 03:28:46;;;;;;;9.10;2.60;;;22.70;52.80;;;;;;4997805;28;20026;-72
2022/06/13 03:31:37;;;;;;;7.57;2.00;;;22.70;52.70;;;;;;4998357;28;20044;-72
2022/06/13 03:34:17;;;;;;;8.23;2.60;;;22.70;52.70;;;;;;5009509;28;20033;-72
2022/06/13 03:36:57;;;;;;;9.30;2.50;;;22.70;52.70;;;;;;5009005;28;20080;-72
2022/06/13 03:39:32;;;;;;;10.68;2.50;;;22.70;52.40;;;;;;5002000;28;20033;-72
2022/06/13 03:42:08;;;;;;;8.40;2.13;;;22.70;52.50;;;;;;5010818;28;20026;-72
2022/06/13 03:44:58;;;;;;;6.85;2.13;;;22.70;52.40;;;;;;5010289;28;20079;-72
2022/06/13 03:47:47;;;;;;;4.75;1.77;;;22.70;52.40;;;;;;5006319;28;20053;-72
2022/06/13 03:50:24;;;;;;;8.40;2.50;;;22.70;52.40;;;;;;5013430;28;20037;-72
2022/06/13 03:52:56;;;;;;;10.30;2.72;;;22.70;52.20;;;;;;5012330;28;20031;-72
2022/06/13 03:55:38;;;;;;;6.15;2.10;;;22.70;52.10;;;;;;5012083;28;20029;-72
2022/06/13 03:58:14;;;;;;;10.45;2.63;;;22.70;52.00;;;;;;5013717;28;20497;-71
2022/06/13 04:00:54;;;;;;;7.38;2.00;;;22.70;52.00;;;;;;5013873;28;20053;-72
2022/06/13 04:03:21;;;;;;;4.78;2.03;;;22.70;52.00;;;;;;5010327;28;20030;-72
2022/06/13 04:06:00;;;;;;;7.13;2.33;;;22.70;51.70;;;;;;5012477;28;20026;-72
2022/06/13 04:08:27;;;;;;;7.18;2.30;;;22.70;51.60;;;;;;5013110;28;20022;-73
2022/06/13 04:11:16;;;;;;;8.70;2.67;;;22.70;51.30;;;;;;5012536;28;20038;-72
2022/06/13 04:14:29;;;;;;;6.57;2.03;;;22.60;51.50;;;;;;5010794;28;20386;-72
2022/06/13 04:17:29;;;;;;;9.35;2.55;;;22.60;51.10;;;;;;4990310;28;20286;-72
2022/06/13 04:20:10;;;;;;;8.13;2.47;;;22.60;51.30;;;;;;5011573;28;20049;-72
2022/06/13 04:22:42;;;;;;;9.60;2.35;;;22.60;51.30;;;;;;4995043;28;20052;-72
2022/06/13 04:25:36;;;;;;;7.43;2.38;;;22.60;51.30;;;;;;5013517;28;20030;-72
2022/06/13 04:28:20;;;;;;;8.15;2.55;;;22.60;51.10;;;;;;5012313;28;20026;-72
2022/06/13 04:30:48;;;;;;;6.95;2.13;;;22.50;51.10;;;;;;5010954;28;20449;-72
2022/06/13 04:33:31;;;;;;;8.60;2.60;;;22.60;51.10;;;;;;4988331;28;20030;-72
2022/06/13 04:35:59;;;;;;;6.13;2.22;;;22.50;50.80;;;;;;5010211;28;20049;-72
2022/06/13 04:38:26;;;;;;;10.57;2.70;;;22.50;50.70;;;;;;5012586;28;20481;-72
2022/06/13 04:40:57;;;;;;;8.70;2.20;;;22.50;50.60;;;;;;5012081;28;20029;-72
2022/06/13 04:43:33;;;;;;;10.05;2.83;;;22.50;50.90;;;;;;5013224;28;20045;-72
2022/06/13 04:46:19;;;;;;;10.57;3.20;;;22.50;50.50;;;;;;4994970;28;20513;-72
2022/06/13 04:48:48;;;;;;;10.57;2.60;;;22.50;50.40;;;;;;5011823;28;20034;-72
2022/06/13 04:51:31;;;;;;;8.98;2.80;;;22.50;50.30;;;;;;5011859;28;20037;-72
2022/06/13 04:54:04;;;;;;;7.38;2.20;;;22.50;50.50;;;;;;5010685;28;20064;-73
2022/06/13 04:56:31;;;;;;;8.10;2.50;;;22.50;50.60;;;;;;5009750;28;20030;-72
2022/06/13 04:58:58;;;;;;;9.38;2.60;;;22.50;50.40;;;;;;5011515;28;20529;-72
2022/06/13 05:01:35;;;;;;;11.15;2.65;;;22.50;50.30;;;;;;5009885;28;20402;-73
2022/06/13 05:04:05;;;;;;;8.10;2.25;;;22.50;50.60;;;;;;4995535;28;20491;-72
2022/06/13 05:06:38;;;;;;;11.45;2.42;;;22.50;50.30;;;;;;5011671;28;20014;-73
2022/06/13 05:09:13;;;;;;;7.15;2.15;;;22.50;50.60;;;;;;5012269;28;20092;-73
2022/06/13 05:11:46;;;;;;;8.98;2.65;;;22.50;50.40;;;;;;5012831;28;20497;-73
2022/06/13 05:14:25;;;;;;;8.95;2.45;;;22.60;50.10;;;;;;5011605;28;20046;-72
2022/06/13 05:17:15;;;;;;;10.32;2.55;;;22.50;49.50;;;;;;5012667;28;20036;-72
2022/06/13 05:20:16;;;;;;;6.60;2.22;;;22.50;49.50;;;;;;5012439;28;20433;-73
2022/06/13 05:23:17;;;;;;;10.00;2.25;;;22.50;49.10;;;;;;4970162;28;20113;-72
2022/06/13 05:25:53;;;;;;;10.98;2.58;;;22.50;49.20;;;;;;4988589;28;20205;-73
2022/06/13 05:28:22;;;;;;;10.85;2.38;;;22.50;49.10;;;;;;5011913;28;20067;-72
2022/06/13 05:30:51;;;;;;;11.23;2.50;;;22.40;49.30;;;;;;5010754;28;20390;-72
2022/06/13 05:33:25;;;;;;;9.13;2.43;;;22.50;49.40;;;;;;5003387;28;20026;-72
2022/06/13 05:35:54;;;;;;;9.63;2.70;;;22.40;49.10;;;;;;5011067;28;20042;-72
2022/06/13 05:38:31;;;;;;;7.80;2.63;;;22.40;49.30;;;;;;4994572;28;20036;-72
2022/06/13 05:40:57;;;;;;;11.27;3.20;;;22.40;49.20;;;;;;5010878;28;20034;-73
2022/06/13 05:43:22;;;;;;;9.68;3.13;;;22.50;49.50;;;;;;5011039;28;20048;-72
2022/06/13 05:45:48;;;;;;;9.65;2.70;;;22.50;49.40;;;;;;5009899;28;20456;-72
2022/06/13 05:48:16;;;;;;;11.40;3.10;;;22.50;49.30;;;;;;5010387;28;20096;-72
2022/06/13 05:50:43;;;;;;;10.02;2.78;;;22.40;49.00;;;;;;5011779;28;20076;-72
2022/06/13 05:53:14;;;;;;;11.95;2.85;;;22.50;49.00;;;;;;5011076;28;20065;-72
2022/06/13 05:55:41;;;;;;;6.63;2.35;;;22.50;49.10;;;;;;5010740;28;20033;-72
2022/06/13 05:58:13;;;;;;;10.02;2.88;;;22.50;48.80;;;;;;5010470;28;20048;-72
2022/06/13 06:00:45;;;;;;;11.40;2.92;;;22.40;48.70;;;;;;5011314;28;20057;-72
2022/06/13 06:03:12;;;;;;;9.55;2.50;;;22.40;48.30;;;;;;4993231;28;20367;-72
2022/06/13 06:05:39;;;;;;;8.23;2.13;;;22.40;48.40;;;;;;5009254;28;20036;-72
2022/06/13 06:08:05;;;;;;;10.45;2.38;;;22.50;48.40;;;;;;5010395;28;20053;-72
2022/06/13 06:10:33;;;;;;;6.55;2.08;;;22.50;48.30;;;;;;4994233;28;20068;-71
2022/06/13 06:13:00;;;;;;;8.88;2.47;;;22.40;47.90;;;;;;5009609;28;20390;-71
2022/06/13 06:15:25;;;;;;;8.00;2.17;;;22.40;47.70;;;;;;5010160;28;20025;-72
2022/06/13 06:17:51;;;;;;;12.00;2.92;;;22.40;47.40;;;;;;5010629;28;20048;-71
2022/06/13 06:20:19;;;;;;;8.57;2.90;;;22.40;48.20;;;;;;5010875;28;20028;-71
2022/06/13 06:22:46;;;;;;;8.30;2.20;;;22.40;46.90;;;;;;4993889;28;20026;-74
2022/06/13 06:25:12;;;;;;;11.50;2.67;;;22.40;46.80;;;;;;5009606;28;20382;-72
2022/06/13 06:27:38;;;;;;;9.02;2.40;;;22.40;47.10;;;;;;5011062;28;20018;-72
2022/06/13 06:30:07;;;;;;;10.50;2.38;;;22.40;46.80;;;;;;5010398;28;20091;-72
2022/06/13 06:32:33;;;;;;;7.55;2.00;;;22.40;47.10;;;;;;5010132;28;20026;-73
2022/06/13 06:34:58;;;;;;;8.10;2.30;;;22.40;47.10;;;;;;4993257;28;20105;-73
2022/06/13 06:37:24;;;;;;;10.77;2.95;;;22.40;47.40;;;;;;5008808;28;20049;-73
2022/06/13 06:39:50;;;;;;;10.18;2.60;;;22.40;47.10;;;;;;5009942;28;20030;-73
2022/06/13 06:42:16;;;;;;;8.93;2.42;;;22.40;47.10;;;;;;4992852;28;20037;-73
2022/06/13 06:44:42;;;;;;;5.88;2.25;;;22.40;46.80;;;;;;5009444;28;20029;-73
2022/06/13 06:47:08;;;;;;;7.50;2.22;;;22.40;46.20;;;;;;5009971;28;20026;-72
2022/06/13 06:49:37;;;;;;;11.30;2.20;;;22.40;45.70;;;;;;5009608;28;20810;-72
2022/06/13 06:52:04;;;;;;;7.05;2.08;;;22.30;45.80;;;;;;5010164;28;20080;-73
2022/06/13 07:00:02;;;;;;;7.75;2.20;;;22.30;46.10;;;;;;5009987;28;20164;-73
2022/06/13 07:02:29;;;;;;;10.65;2.50;;;22.30;45.80;;;;;;5025759;28;20026;-73
2022/06/13 07:05:00;;;;;;;10.00;2.40;;;22.40;46.10;;;;;;5009700;28;20033;-72
2022/06/13 07:07:26;;;;;;;8.88;2.28;;;22.40;46.20;;;;;;5015356;28;20017;-72
2022/06/13 07:09:52;;;;;;;10.82;2.38;;;22.40;46.20;;;;;;5026385;28;20091;-72
2022/06/13 07:12:18;;;;;;;8.10;2.25;;;22.40;45.80;;;;;;5030461;28;20021;-73
2022/06/13 07:14:45;;;;;;;10.23;2.00;;;22.40;45.80;;;;;;5029504;28;20033;-72
2022/06/13 07:17:11;;;;;;;10.27;2.28;;;22.30;46.90;;;;;;5031189;28;20109;-73
2022/06/13 07:19:38;;;;;;;9.52;2.15;;;22.30;46.20;;;;;;5032032;28;20053;-72
2022/06/13 07:22:06;;;;;;;10.35;2.28;;;22.40;46.80;;;;;;5034490;28;20021;-73
2022/06/13 07:24:32;;;;;;;11.88;2.65;;;22.40;46.20;;;;;;5034486;28;20521;-73
2022/06/13 07:26:58;;;;;;;11.85;2.90;;;22.40;46.40;;;;;;5014072;28;20099;-72
2022/06/13 07:29:24;;;;;;;10.40;2.30;;;22.40;46.00;;;;;;5020181;28;20129;-72
2022/06/13 07:31:55;;;;;;;11.85;2.70;;;22.40;46.30;;;;;;5033496;28;20386;-73
2022/06/13 07:34:25;;;;;;;12.90;2.17;;;22.50;46.70;;;;;;5026050;28;20474;-72
2022/06/13 07:36:53;;;;;;;15.05;2.33;;;22.60;47.10;;;;;;5016216;28;20482;-73
2022/06/13 07:39:20;;;;;;;12.10;2.38;;;22.60;47.30;;;;;;5031882;28;20397;-73
2022/06/13 07:41:46;;;;;;;9.63;2.50;;;22.70;47.10;;;;;;5032502;28;20478;-70
2022/06/13 07:44:25;;;;;;;12.43;2.50;;;22.70;47.80;;;;;;5028418;28;20355;-71
2022/06/13 07:46:51;;;;;;;23.70;8.30;;;22.70;47.50;;;;;;5033284;28;20490;-71
2022/06/13 07:49:18;;;;;;;28.13;15.13;;;22.60;46.80;;;;;;5031961;28;20437;-71
2022/06/13 07:51:45;;;;;;;40.63;19.67;;;22.50;46.40;;;;;;5033025;28;20021;-71
2022/06/13 07:54:11;;;;;;;31.50;15.98;;;22.50;46.20;;;;;;5012616;28;20650;-70
2022/06/13 07:56:38;;;;;;;23.33;10.80;;;22.40;46.10;;;;;;5027810;28;20646;-73
2022/06/13 07:59:05;;;;;;;19.08;6.30;;;22.40;45.70;;;;;;5031024;28;20220;-75
2022/06/13 08:01:31;;;;;;;19.90;8.32;;;22.40;45.10;;;;;;5032189;28;20033;-75
2022/06/13 08:03:58;;;;;;;25.95;14.38;;;22.40;45.10;;;;;;5028507;28;20064;-74
2022/06/13 08:06:25;;;;;;;20.67;10.27;;;22.40;44.40;;;;;;5032767;28;20037;-75
2022/06/13 08:08:52;;;;;;;18.10;6.85;;;22.40;45.40;;;;;;5032422;28;20033;-75
2022/06/13 08:11:34;;;;;;;16.75;6.38;;;22.40;45.20;;;;;;5032437;28;20091;-75
2022/06/13 08:14:00;;;;;;;13.15;4.78;;;22.30;44.50;;;;;;5029185;28;20041;-74
2022/06/13 08:16:27;;;;;;;22.33;5.75;;;22.30;45.20;;;;;;5032532;28;20160;-74
2022/06/13 08:18:53;;;;;;;19.25;4.90;;;22.40;45.50;;;;;;5031074;28;20100;-74
2022/06/13 08:21:19;;;;;;;22.27;4.90;;;22.40;45.70;;;;;;5032486;28;20112;-74
2022/06/13 08:23:45;;;;;;;18.27;4.85;;;22.40;45.30;;;;;;5013899;28;20029;-74
2022/06/13 08:26:12;;;;;;;17.88;6.38;;;22.40;45.50;;;;;;5033159;28;20393;-74
2022/06/13 08:28:38;;;;;;;18.67;7.05;;;22.40;45.10;;;;;;5030626;28;20033;-73
2022/06/13 08:31:23;;;;;;;16.63;7.50;;;22.40;45.10;;;;;;5033300;28;20033;-74
2022/06/13 08:33:49;;;;;;;12.90;5.68;;;22.50;44.50;;;;;;5029154;28;20118;-74
2022/06/13 08:36:15;;;;;;;13.07;5.47;;;22.50;44.30;;;;;;5031247;28;20029;-74
2022/06/13 08:38:41;;;;;;;18.23;4.25;;;22.50;44.90;;;;;;5031225;28;20367;-74
2022/06/13 08:41:10;;;;;;;16.42;5.13;;;22.60;45.00;;;;;;5031340;28;20033;-74
2022/06/13 08:44:03;;;;;;;14.63;5.47;;;22.60;45.60;;;;;;5030362;28;20061;-74
2022/06/13 08:46:58;;;;;;;14.63;5.25;;;22.60;46.50;;;;;;5029709;28;20632;-74
2022/06/13 08:49:56;;;;;;;15.98;4.40;;;22.60;45.60;;;;;;5028571;28;20026;-74
2022/06/13 08:52:29;;;;;;;14.70;4.35;;;22.60;46.30;;;;;;5030485;28;20029;-74
2022/06/13 08:55:10;;;;;;;12.85;3.78;;;22.60;46.60;;;;;;5027580;28;20025;-74
2022/06/13 08:57:43;;;;;;;14.40;4.47;;;22.60;45.90;;;;;;5030033;28;20108;-74
2022/06/13 09:00:14;;;;;;;10.75;3.80;;;22.60;45.60;;;;;;5031035;28;20043;-74
2022/06/13 09:03:11;;;;;;;11.90;3.80;;;22.60;45.40;;;;;;5029833;28;20513;-74
2022/06/13 09:05:58;;;;;;;14.40;3.70;;;22.60;45.70;;;;;;5031614;28;20030;-74
2022/06/13 09:08:46;;;;;;;20.67;3.63;;;22.60;45.20;;;;;;5031474;28;20030;-74
2022/06/13 09:11:42;;;;;;;18.08;3.78;;;22.60;45.00;;;;;;5031574;28;20044;-74
2022/06/13 09:14:25;;;;;;;14.50;3.75;;;22.60;45.30;;;;;;5032761;28;20141;-74
2022/06/13 09:17:37;;;;;;;14.35;3.20;;;22.60;46.50;;;;;;5032443;28;20552;-74
2022/06/13 09:20:03;;;;;;;12.07;3.45;;;22.60;44.90;;;;;;4970923;28;20077;-74
2022/06/13 09:23:08;;;;;;;12.45;3.55;;;22.60;44.80;;;;;;5020733;28;20033;-73
2022/06/13 09:25:53;;;;;;;16.10;4.55;;;22.60;46.10;;;;;;5018854;28;20444;-71
2022/06/13 09:28:19;;;;;;;13.60;3.65;;;22.60;45.90;;;;;;5028455;28;20080;-71
2022/06/13 09:30:49;;;;;;;10.98;3.30;;;22.60;45.80;;;;;;5030284;28;20033;-71
2022/06/13 09:33:31;;;;;;;11.80;3.78;;;22.60;47.00;;;;;;5029842;28;20429;-71
2022/06/13 09:35:59;;;;;;;11.30;3.60;;;22.60;47.10;;;;;;5012752;28;20144;-71
2022/06/13 09:38:39;;;;;;;14.63;3.80;;;22.60;47.10;;;;;;5030843;28;20610;-71
2022/06/13 09:41:05;;;;;;;;;;;22.60;46.60;;;;;;5032103;28;20398;-72
2022/06/13 09:44:02;;;;;;;13.55;2.85;;;22.60;47.00;;;;;;5031953;28;19913;-72
2022/06/13 09:46:55;;;;;;;14.95;3.58;;;22.60;46.50;;;;;;5030569;28;20052;-72
2022/06/13 09:49:36;;;;;;;13.15;3.50;;;22.70;45.80;;;;;;5031571;28;20026;-71
2022/06/13 09:52:21;;;;;;;12.68;3.28;;;22.70;46.40;;;;;;5030434;28;20033;-71
2022/06/13 09:54:56;;;;;;;16.45;2.92;;;22.70;46.30;;;;;;5031998;28;20032;-71
2022/06/13 09:57:32;;;;;;;10.75;3.13;;;22.80;46.10;;;;;;5031294;28;20486;-71
2022/06/13 10:00:11;;;;;;;7.50;3.10;;;22.80;46.30;;;;;;5031525;28;20122;-71
2022/06/13 10:02:54;;;;;;;11.48;3.13;;;22.80;46.40;;;;;;5031691;28;20040;-71
2022/06/13 10:05:35;;;;;;;11.48;3.10;;;22.80;46.40;;;;;;5031661;28;20037;-71
2022/06/13 10:08:53;;;;;;;14.05;3.25;;;22.80;47.10;;;;;;5031115;28;20501;-71
2022/06/13 10:11:24;;;;;;;8.98;2.58;;;22.80;46.90;;;;;;4970432;28;20569;-71
2022/06/13 10:14:06;;;;;;;24.25;3.63;;;22.80;47.30;;;;;;5021084;28;20038;-71
2022/06/13 10:16:50;;;;;;;11.75;3.58;;;22.80;47.40;;;;;;5029836;28;20025;-71
2022/06/13 10:19:24;;;;;;;14.20;3.50;;;22.80;46.80;;;;;;5031015;28;20061;-71
2022/06/13 10:22:04;;;;;;;11.38;3.22;;;22.80;47.20;;;;;;5031294;28;20033;-70
2022/06/13 10:24:36;;;;;;;;;;;22.80;47.00;;;;;;5030675;28;20064;-71
2022/06/13 10:27:43;;;;;;;16.05;3.60;;;22.90;47.80;;;;;;5031212;28;19909;-71
2022/06/13 10:30:12;;;;;;;17.50;3.45;;;22.90;48.10;;;;;;5030019;28;20053;-72
2022/06/13 10:33:16;;;;;;;14.90;5.20;;;22.80;47.60;;;;;;5029832;28;20045;-72
2022/06/13 10:35:57;;;;;;;14.80;5.55;;;22.80;47.40;;;;;;4969927;28;20066;-73
2022/06/13 10:39:05;;;;;;;14.65;4.57;;;22.80;45.90;;;;;;4969759;28;20689;-73
2022/06/13 10:41:35;;;;;;;15.07;4.05;;;22.80;46.70;;;;;;4961416;28;20047;-72
2022/06/13 10:44:03;;;;;;;20.55;4.88;;;22.80;47.40;;;;;;4970084;28;20045;-72
2022/06/13 10:46:29;;;;;;;18.40;4.38;;;22.90;48.40;;;;;;5002384;28;20045;-72
2022/06/13 10:49:10;;;;;;;20.40;4.28;;;22.90;48.10;;;;;;5029535;28;20109;-72
2022/06/13 10:51:38;;;;;;;11.88;3.88;;;22.90;48.10;;;;;;5031793;28;20044;-72
2022/06/13 10:54:15;;;;;;;11.10;3.58;;;22.90;46.80;;;;;;5035246;28;20029;-72
2022/06/13 10:56:40;;;;;;;11.57;3.63;;;22.90;47.30;;;;;;5034937;28;20032;-73
2022/06/13 10:59:19;;;;;;;13.75;4.38;;;22.90;46.50;;;;;;5034635;28;20144;-72
2022/06/13 11:02:00;;;;;;;13.27;4.30;;;22.90;47.20;;;;;;5035131;28;20083;-72
2022/06/13 11:04:28;;;;;;;12.45;3.83;;;22.90;46.60;;;;;;5034955;28;20032;-72
2022/06/13 11:06:59;;;;;;;12.88;3.35;;;22.90;46.60;;;;;;5034683;28;20486;-70
2022/06/13 11:09:40;;;;;;;12.50;3.83;;;22.90;47.30;;;;;;5033483;28;20067;-68
2022/06/13 11:12:18;;;;;;;18.73;4.13;;;22.90;46.80;;;;;;5034815;28;20497;-73
2022/06/13 11:23:46;;;;;;;11.02;3.50;;;22.90;46.50;;;;;;5034732;28;20032;-73
2022/06/13 11:28:58;;;;;;;10.48;3.45;;;22.90;46.80;;;;;;5034094;28;20029;-73
2022/06/13 11:31:30;;;;;;;10.88;3.28;;;22.90;47.10;;;;;;5033191;28;20026;-73
2022/06/13 11:33:56;;;;;;;10.90;3.17;;;22.90;47.20;;;;;;5016704;28;20398;-73
2022/06/13 11:36:28;;;;;;;11.57;3.33;;;22.80;47.40;;;;;;5034220;28;20021;-73
2022/06/13 11:39:01;;;;;;;12.00;3.75;;;22.80;47.60;;;;;;5032315;28;20402;-73
2022/06/13 11:41:40;;;;;;;10.38;3.03;;;22.80;47.70;;;;;;5033977;28;20029;-73
2022/06/13 11:44:14;;;;;;;9.65;3.33;;;22.80;47.60;;;;;;5034393;28;20033;-73
2022/06/13 11:46:56;;;;;;;9.88;3.33;;;22.80;47.80;;;;;;5033820;28;20037;-73
2022/06/13 11:49:41;;;;;;;10.27;3.15;;;22.80;47.70;;;;;;5033736;28;20474;-73
2022/06/13 11:52:09;;;;;;;10.07;3.05;;;22.90;48.10;;;;;;5033889;28;20060;-73
2022/06/13 11:54:57;;;;;;;11.32;3.50;;;22.90;48.20;;;;;;5032921;28;20079;-73
2022/06/13 11:57:35;;;;;;;10.32;3.67;;;22.90;48.20;;;;;;5033395;28;20033;-73
2022/06/13 12:00:21;;;;;;;11.48;3.78;;;22.80;48.20;;;;;;5032735;28;20099;-73
2022/06/13 12:02:49;;;;;;;10.10;3.55;;;22.90;48.40;;;;;;5033721;28;20033;-73
2022/06/13 12:05:21;;;;;;;8.85;3.20;;;22.80;48.40;;;;;;5032628;28;20545;-73
2022/06/13 12:07:51;;;;;;;11.82;3.20;;;22.90;48.60;;;;;;5033435;28;20032;-73
2022/06/13 12:10:20;;;;;;;10.93;3.50;;;22.80;48.30;;;;;;5033848;28;20029;-73
2022/06/13 12:12:46;;;;;;;9.17;3.10;;;22.90;48.50;;;;;;5033789;28;20025;-73
2022/06/13 12:15:14;;;;;;;8.68;3.30;;;22.80;48.60;;;;;;5033891;28;20333;-73
2022/06/13 12:17:48;;;;;;;8.40;2.83;;;22.90;48.80;;;;;;5032096;28;20056;-73
2022/06/13 12:20:27;;;;;;;9.65;3.05;;;22.80;48.90;;;;;;5016015;28;20037;-73
2022/06/13 12:23:00;;;;;;;12.27;3.80;;;22.80;49.10;;;;;;5033676;28;20033;-74
2022/06/13 12:25:38;;;;;;;10.63;3.28;;;22.90;49.90;;;;;;5033588;28;20097;-74
2022/06/13 12:28:17;;;;;;;10.23;3.28;;;22.80;49.90;;;;;;5033233;28;20440;-73
2022/06/13 12:30:52;;;;;;;8.18;3.17;;;22.80;49.70;;;;;;5032102;28;20030;-74
2022/06/13 12:33:53;;;;;;;9.32;2.88;;;22.80;50.30;;;;;;5015796;28;20494;-73
2022/06/13 12:36:46;;;;;;;10.05;2.83;;;22.80;49.90;;;;;;5033091;28;20034;-74
2022/06/13 12:39:31;;;;;;;9.88;2.63;;;22.80;49.10;;;;;;5031843;28;20115;-73
2022/06/13 12:42:15;;;;;;;12.13;2.72;;;22.70;48.20;;;;;;5033461;28;20033;-73
2022/06/13 12:45:05;;;;;;;10.82;2.50;;;22.70;48.60;;;;;;5032814;28;20091;-73
2022/06/13 12:47:46;;;;;;;8.70;2.92;;;22.70;47.70;;;;;;5031498;28;20033;-74
2022/06/13 12:50:29;;;;;;;10.73;3.33;;;22.70;46.80;;;;;;5015540;28;20025;-74
2022/06/13 12:53:10;;;;;;;8.73;3.20;;;22.70;46.10;;;;;;5032898;28;20035;-74
2022/06/13 12:55:53;;;;;;;9.30;3.08;;;22.70;46.00;;;;;;5032871;28;20382;-74
2022/06/13 12:59:03;;;;;;;10.10;2.95;;;22.70;47.10;;;;;;5023820;23;20041;-76
2022/06/13 13:01:40;;;;;;;6.65;2.60;;;22.70;45.90;;;;;;4994657;28;20022;-75
2022/06/13 13:04:24;;;;;;;7.57;2.75;;;22.70;45.80;;;;;;4993015;28;20033;-75
2022/06/13 13:06:59;;;;;;;6.65;2.45;;;22.80;47.30;;;;;;4991867;28;20391;-75
2022/06/13 13:09:46;;;;;;;10.32;2.67;;;22.80;45.90;;;;;;4994139;28;20470;-76
2022/06/13 13:12:28;;;;;;;9.10;2.50;;;22.80;46.00;;;;;;4996801;28;20187;-75
2022/06/13 13:15:13;;;;;;;8.70;2.40;;;22.90;46.10;;;;;;5009244;28;20030;-75
2022/06/13 13:18:10;;;;;;;9.27;2.47;;;22.90;46.30;;;;;;5011944;28;20030;-76
2022/06/13 13:20:48;;;;;;;22.42;5.38;;;22.90;45.40;;;;;;5011307;28;20034;-75
2022/06/13 13:23:25;;;;;;;6.80;2.30;;;22.90;45.70;;;;;;5012499;28;20032;-76
2022/06/13 13:26:14;;;;;;;10.65;2.75;;;22.80;45.60;;;;;;5011333;28;20040;-75
2022/06/13 13:28:58;;;;;;;12.40;3.20;;;22.80;45.20;;;;;;4994758;28;20034;-75
2022/06/13 13:31:50;;;;;;;13.40;3.83;;;22.80;45.70;;;;;;5012728;28;20034;-75
2022/06/13 13:34:34;;;;;;;12.80;3.47;;;22.80;45.80;;;;;;5012403;28;20029;-75
2022/06/13 13:37:27;;;;;;;10.77;3.28;;;22.80;46.10;;;;;;5012683;28;20130;-75
2022/06/13 13:40:22;;;;;;;11.68;3.40;;;22.80;45.70;;;;;;5010776;28;20112;-75
2022/06/13 13:43:07;;;;;;;10.23;2.92;;;22.80;45.50;;;;;;5010194;28;20053;-75
2022/06/13 13:45:57;;;;;;;11.43;2.17;;;22.80;45.80;;;;;;5012575;28;20060;-75
2022/06/13 13:48:49;;;;;;;11.52;2.45;;;22.70;45.20;;;;;;4978442;28;20037;-75
2022/06/13 13:51:24;;;;;;;7.00;2.15;;;22.80;45.70;;;;;;5007683;28;20124;-75
2022/06/13 13:54:09;;;;;;;10.85;2.80;;;22.70;45.40;;;;;;5012037;28;20565;-75